sensor_id;sensor_type;location;lat;lon;timestamp;P1;durP1;ratioP1;P2;durP2;ratioP2
21886;SDS011;11108;49.988;8.182;2023-12-20T00:00:49;1.40;;;1.30;;
21886;SDS011;11108;49.988;8.182;2023-12-20T00:03:14;1.27;;;1.17;;
21886;SDS011;11108;49.988;8.182;2023-12-20T00:05:40;1.17;;;1.17;;
21886;SDS011;11108;49.988;8.182;2023-12-20T00:08:06;1.50;;;1.40;;
21886;SDS011;11108;49.988;8.182;2023-12-20T00:10:31;1.60;;;1.50;;
21886;SDS011;11108;49.988;8.182;2023-12-20T00:12:56;1.17;;;1.17;;
21886;SDS011;11108;49.988;8.182;2023-12-20T00:15:22;1.30;;;1.30;;
21886;SDS011;11108;49.988;8.182;2023-12-20T00:17:47;1.27;;;1.23;;
21886;SDS011;11108;49.988;8.182;2023-12-20T00:20:12;1.10;;;1.10;;
21886;SDS011;11108;49.988;8.182;2023-12-20T00:22:37;1.33;;;1.33;;
21886;SDS011;11108;49.988;8.182;2023-12-20T00:25:03;1.70;;;1.20;;
21886;SDS011;11108;49.988;8.182;2023-12-20T00:27:28;1.20;;;1.20;;
21886;SDS011;11108;49.988;8.182;2023-12-20T00:29:53;1.40;;;1.30;;
21886;SDS011;11108;49.988;8.182;2023-12-20T00:32:18;1.50;;;1.40;;
21886;SDS011;11108;49.988;8.182;2023-12-20T00:34:44;2.10;;;1.20;;
21886;SDS011;11108;49.988;8.182;2023-12-20T00:37:09;1.37;;;1.27;;
21886;SDS011;11108;49.988;8.182;2023-12-20T00:39:34;1.33;;;1.00;;
21886;SDS011;11108;49.988;8.182;2023-12-20T00:42:00;1.30;;;1.30;;
21886;SDS011;11108;49.988;8.182;2023-12-20T00:44:25;1.20;;;1.20;;
21886;SDS011;11108;49.988;8.182;2023-12-20T00:46:50;1.27;;;1.27;;
21886;SDS011;11108;49.988;8.182;2023-12-20T00:49:16;1.10;;;1.10;;
21886;SDS011;11108;49.988;8.182;2023-12-20T00:51:41;1.40;;;1.30;;
21886;SDS011;11108;49.988;8.182;2023-12-20T00:54:06;1.00;;;1.00;;
21886;SDS011;11108;49.988;8.182;2023-12-20T00:56:32;1.40;;;1.30;;
21886;SDS011;11108;49.988;8.182;2023-12-20T00:58:57;1.10;;;1.10;;
21886;SDS011;11108;49.988;8.182;2023-12-20T01:01:22;0.90;;;0.90;;
21886;SDS011;11108;49.988;8.182;2023-12-20T01:03:47;0.97;;;0.97;;
21886;SDS011;11108;49.988;8.182;2023-12-20T01:06:13;1.13;;;1.13;;
21886;SDS011;11108;49.988;8.182;2023-12-20T01:08:38;1.10;;;1.10;;
21886;SDS011;11108;49.988;8.182;2023-12-20T01:11:04;1.33;;;1.10;;
21886;SDS011;11108;49.988;8.182;2023-12-20T01:13:29;1.00;;;1.00;;
21886;SDS011;11108;49.988;8.182;2023-12-20T01:15:55;1.13;;;1.13;;
21886;SDS011;11108;49.988;8.182;2023-12-20T01:18:20;1.00;;;1.00;;
21886;SDS011;11108;49.988;8.182;2023-12-20T01:20:45;1.10;;;1.10;;
21886;SDS011;11108;49.988;8.182;2023-12-20T01:23:10;3.03;;;1.17;;
21886;SDS011;11108;49.988;8.182;2023-12-20T01:25:36;1.03;;;1.03;;
21886;SDS011;11108;49.988;8.182;2023-12-20T01:28:01;0.70;;;0.70;;
21886;SDS011;11108;49.988;8.182;2023-12-20T01:30:28;1.30;;;1.30;;
21886;SDS011;11108;49.988;8.182;2023-12-20T01:32:53;0.90;;;0.90;;
21886;SDS011;11108;49.988;8.182;2023-12-20T01:35:19;0.93;;;0.93;;
21886;SDS011;11108;49.988;8.182;2023-12-20T01:37:44;1.00;;;1.00;;
21886;SDS011;11108;49.988;8.182;2023-12-20T01:40:10;1.00;;;1.00;;
21886;SDS011;11108;49.988;8.182;2023-12-20T01:42:35;0.90;;;0.90;;
21886;SDS011;11108;49.988;8.182;2023-12-20T01:45:00;0.93;;;0.93;;
21886;SDS011;11108;49.988;8.182;2023-12-20T01:47:25;0.73;;;0.73;;
21886;SDS011;11108;49.988;8.182;2023-12-20T01:49:52;0.90;;;0.90;;
21886;SDS011;11108;49.988;8.182;2023-12-20T01:52:17;0.93;;;0.93;;
21886;SDS011;11108;49.988;8.182;2023-12-20T01:54:42;1.00;;;0.90;;
21886;SDS011;11108;49.988;8.182;2023-12-20T01:57:08;0.87;;;0.87;;
21886;SDS011;11108;49.988;8.182;2023-12-20T01:59:34;1.10;;;1.10;;
21886;SDS011;11108;49.988;8.182;2023-12-20T02:01:59;0.90;;;0.90;;
21886;SDS011;11108;49.988;8.182;2023-12-20T02:04:25;1.00;;;1.00;;
21886;SDS011;11108;49.988;8.182;2023-12-20T02:06:52;0.87;;;0.87;;
21886;SDS011;11108;49.988;8.182;2023-12-20T02:09:17;0.90;;;0.90;;
21886;SDS011;11108;49.988;8.182;2023-12-20T02:11:43;0.90;;;0.90;;
21886;SDS011;11108;49.988;8.182;2023-12-20T02:14:08;0.80;;;0.80;;
21886;SDS011;11108;49.988;8.182;2023-12-20T02:16:33;0.83;;;0.83;;
21886;SDS011;11108;49.988;8.182;2023-12-20T02:18:59;1.27;;;1.20;;
21886;SDS011;11108;49.988;8.182;2023-12-20T02:21:25;0.90;;;0.90;;
21886;SDS011;11108;49.988;8.182;2023-12-20T02:23:50;0.80;;;0.80;;
21886;SDS011;11108;49.988;8.182;2023-12-20T02:26:15;1.00;;;1.00;;
21886;SDS011;11108;49.988;8.182;2023-12-20T02:28:41;0.60;;;0.60;;
21886;SDS011;11108;49.988;8.182;2023-12-20T02:31:06;0.80;;;0.77;;
21886;SDS011;11108;49.988;8.182;2023-12-20T02:33:31;0.90;;;0.90;;
21886;SDS011;11108;49.988;8.182;2023-12-20T02:35:57;0.90;;;0.90;;
21886;SDS011;11108;49.988;8.182;2023-12-20T02:38:22;0.90;;;0.90;;
21886;SDS011;11108;49.988;8.182;2023-12-20T02:40:47;0.80;;;0.80;;
21886;SDS011;11108;49.988;8.182;2023-12-20T02:43:12;0.80;;;0.80;;
21886;SDS011;11108;49.988;8.182;2023-12-20T02:45:38;0.80;;;0.80;;
21886;SDS011;11108;49.988;8.182;2023-12-20T02:48:03;0.90;;;0.90;;
21886;SDS011;11108;49.988;8.182;2023-12-20T02:50:28;0.67;;;0.67;;
21886;SDS011;11108;49.988;8.182;2023-12-20T02:52:54;0.80;;;0.80;;
21886;SDS011;11108;49.988;8.182;2023-12-20T02:55:19;0.77;;;0.77;;
21886;SDS011;11108;49.988;8.182;2023-12-20T02:57:44;0.70;;;0.70;;
21886;SDS011;11108;49.988;8.182;2023-12-20T03:00:09;0.80;;;0.80;;
21886;SDS011;11108;49.988;8.182;2023-12-20T03:02:35;0.73;;;0.73;;
21886;SDS011;11108;49.988;8.182;2023-12-20T03:05:01;0.80;;;0.80;;
21886;SDS011;11108;49.988;8.182;2023-12-20T03:07:26;0.67;;;0.67;;
21886;SDS011;11108;49.988;8.182;2023-12-20T03:09:51;0.70;;;0.70;;
21886;SDS011;11108;49.988;8.182;2023-12-20T03:12:17;0.80;;;0.80;;
21886;SDS011;11108;49.988;8.182;2023-12-20T03:14:43;0.70;;;0.70;;
21886;SDS011;11108;49.988;8.182;2023-12-20T03:17:08;0.67;;;0.63;;
21886;SDS011;11108;49.988;8.182;2023-12-20T03:19:33;0.80;;;0.80;;
21886;SDS011;11108;49.988;8.182;2023-12-20T03:21:59;0.90;;;0.90;;
21886;SDS011;11108;49.988;8.182;2023-12-20T03:24:25;0.80;;;0.80;;
21886;SDS011;11108;49.988;8.182;2023-12-20T03:26:51;0.70;;;0.70;;
21886;SDS011;11108;49.988;8.182;2023-12-20T03:29:16;0.70;;;0.70;;
21886;SDS011;11108;49.988;8.182;2023-12-20T03:31:41;0.90;;;0.90;;
21886;SDS011;11108;49.988;8.182;2023-12-20T03:34:06;0.60;;;0.60;;
21886;SDS011;11108;49.988;8.182;2023-12-20T03:36:32;0.67;;;0.67;;
21886;SDS011;11108;49.988;8.182;2023-12-20T03:38:57;0.60;;;0.60;;
21886;SDS011;11108;49.988;8.182;2023-12-20T03:41:22;0.70;;;0.70;;
21886;SDS011;11108;49.988;8.182;2023-12-20T03:43:47;1.27;;;0.80;;
21886;SDS011;11108;49.988;8.182;2023-12-20T03:46:12;0.70;;;0.70;;
21886;SDS011;11108;49.988;8.182;2023-12-20T03:48:38;0.80;;;0.80;;
21886;SDS011;11108;49.988;8.182;2023-12-20T03:51:03;0.70;;;0.70;;
21886;SDS011;11108;49.988;8.182;2023-12-20T03:53:28;0.70;;;0.70;;
21886;SDS011;11108;49.988;8.182;2023-12-20T03:55:53;0.70;;;0.70;;
21886;SDS011;11108;49.988;8.182;2023-12-20T03:58:19;0.70;;;0.70;;
21886;SDS011;11108;49.988;8.182;2023-12-20T04:00:44;0.60;;;0.60;;
21886;SDS011;11108;49.988;8.182;2023-12-20T04:03:09;0.60;;;0.60;;
21886;SDS011;11108;49.988;8.182;2023-12-20T04:05:37;0.77;;;0.77;;
21886;SDS011;11108;49.988;8.182;2023-12-20T04:08:02;0.60;;;0.60;;
21886;SDS011;11108;49.988;8.182;2023-12-20T04:10:29;0.60;;;0.60;;
21886;SDS011;11108;49.988;8.182;2023-12-20T04:12:54;0.70;;;0.50;;
21886;SDS011;11108;49.988;8.182;2023-12-20T04:15:20;0.60;;;0.60;;
21886;SDS011;11108;49.988;8.182;2023-12-20T04:17:45;0.53;;;0.53;;
21886;SDS011;11108;49.988;8.182;2023-12-20T04:20:10;0.60;;;0.60;;
21886;SDS011;11108;49.988;8.182;2023-12-20T04:22:35;0.50;;;0.50;;
21886;SDS011;11108;49.988;8.182;2023-12-20T04:25:01;0.63;;;0.63;;
21886;SDS011;11108;49.988;8.182;2023-12-20T04:27:27;0.63;;;0.63;;
21886;SDS011;11108;49.988;8.182;2023-12-20T04:29:52;0.60;;;0.60;;
21886;SDS011;11108;49.988;8.182;2023-12-20T04:32:17;0.60;;;0.60;;
21886;SDS011;11108;49.988;8.182;2023-12-20T04:34:42;0.57;;;0.57;;
21886;SDS011;11108;49.988;8.182;2023-12-20T04:37:08;0.50;;;0.50;;
21886;SDS011;11108;49.988;8.182;2023-12-20T04:39:33;0.60;;;0.60;;
21886;SDS011;11108;49.988;8.182;2023-12-20T04:41:58;0.67;;;0.67;;
21886;SDS011;11108;49.988;8.182;2023-12-20T04:44:23;0.60;;;0.60;;
21886;SDS011;11108;49.988;8.182;2023-12-20T04:46:48;0.70;;;0.70;;
21886;SDS011;11108;49.988;8.182;2023-12-20T04:49:14;0.70;;;0.70;;
21886;SDS011;11108;49.988;8.182;2023-12-20T04:51:39;0.60;;;0.60;;
21886;SDS011;11108;49.988;8.182;2023-12-20T04:54:04;0.60;;;0.60;;
21886;SDS011;11108;49.988;8.182;2023-12-20T04:56:30;0.53;;;0.40;;
21886;SDS011;11108;49.988;8.182;2023-12-20T04:58:55;0.90;;;0.90;;
21886;SDS011;11108;49.988;8.182;2023-12-20T05:01:20;0.80;;;0.80;;
21886;SDS011;11108;49.988;8.182;2023-12-20T05:03:46;1.27;;;0.50;;
21886;SDS011;11108;49.988;8.182;2023-12-20T05:06:11;1.13;;;0.70;;
21886;SDS011;11108;49.988;8.182;2023-12-20T05:08:37;0.80;;;0.43;;
21886;SDS011;11108;49.988;8.182;2023-12-20T05:11:02;0.60;;;0.60;;
21886;SDS011;11108;49.988;8.182;2023-12-20T05:13:27;0.57;;;0.57;;
21886;SDS011;11108;49.988;8.182;2023-12-20T05:15:52;0.47;;;0.47;;
21886;SDS011;11108;49.988;8.182;2023-12-20T05:18:18;0.50;;;0.50;;
21886;SDS011;11108;49.988;8.182;2023-12-20T05:20:43;0.57;;;0.57;;
21886;SDS011;11108;49.988;8.182;2023-12-20T05:23:08;0.50;;;0.50;;
21886;SDS011;11108;49.988;8.182;2023-12-20T05:25:33;0.83;;;0.80;;
21886;SDS011;11108;49.988;8.182;2023-12-20T05:27:59;0.50;;;0.50;;
21886;SDS011;11108;49.988;8.182;2023-12-20T05:30:24;0.50;;;0.50;;
21886;SDS011;11108;49.988;8.182;2023-12-20T05:32:49;0.63;;;0.63;;
21886;SDS011;11108;49.988;8.182;2023-12-20T05:35:14;0.70;;;0.70;;
21886;SDS011;11108;49.988;8.182;2023-12-20T05:37:40;0.70;;;0.70;;
21886;SDS011;11108;49.988;8.182;2023-12-20T05:40:05;0.60;;;0.50;;
21886;SDS011;11108;49.988;8.182;2023-12-20T05:42:31;0.60;;;0.60;;
21886;SDS011;11108;49.988;8.182;2023-12-20T05:44:56;0.60;;;0.60;;
21886;SDS011;11108;49.988;8.182;2023-12-20T05:47:21;0.60;;;0.60;;
21886;SDS011;11108;49.988;8.182;2023-12-20T05:49:46;0.67;;;0.60;;
21886;SDS011;11108;49.988;8.182;2023-12-20T05:52:12;0.60;;;0.60;;
21886;SDS011;11108;49.988;8.182;2023-12-20T05:54:37;0.57;;;0.57;;
21886;SDS011;11108;49.988;8.182;2023-12-20T05:57:02;0.83;;;0.83;;
21886;SDS011;11108;49.988;8.182;2023-12-20T05:59:28;0.50;;;0.50;;
21886;SDS011;11108;49.988;8.182;2023-12-20T06:01:53;0.67;;;0.57;;
21886;SDS011;11108;49.988;8.182;2023-12-20T06:04:18;0.60;;;0.60;;
21886;SDS011;11108;49.988;8.182;2023-12-20T06:06:44;0.73;;;0.60;;
21886;SDS011;11108;49.988;8.182;2023-12-20T06:09:09;0.50;;;0.50;;
21886;SDS011;11108;49.988;8.182;2023-12-20T06:11:35;0.60;;;0.60;;
21886;SDS011;11108;49.988;8.182;2023-12-20T06:14:00;0.50;;;0.50;;
21886;SDS011;11108;49.988;8.182;2023-12-20T06:16:25;0.60;;;0.60;;
21886;SDS011;11108;49.988;8.182;2023-12-20T06:18:50;0.70;;;0.70;;
21886;SDS011;11108;49.988;8.182;2023-12-20T06:21:15;1.00;;;0.70;;
21886;SDS011;11108;49.988;8.182;2023-12-20T06:23:41;0.60;;;0.60;;
21886;SDS011;11108;49.988;8.182;2023-12-20T06:26:06;0.70;;;0.70;;
21886;SDS011;11108;49.988;8.182;2023-12-20T06:28:31;0.50;;;0.50;;
21886;SDS011;11108;49.988;8.182;2023-12-20T06:30:57;0.80;;;0.80;;
21886;SDS011;11108;49.988;8.182;2023-12-20T06:33:22;0.50;;;0.50;;
21886;SDS011;11108;49.988;8.182;2023-12-20T06:35:48;0.43;;;0.43;;
21886;SDS011;11108;49.988;8.182;2023-12-20T06:38:13;1.60;;;0.63;;
21886;SDS011;11108;49.988;8.182;2023-12-20T06:40:39;0.40;;;0.40;;
21886;SDS011;11108;49.988;8.182;2023-12-20T06:43:04;0.70;;;0.70;;
21886;SDS011;11108;49.988;8.182;2023-12-20T06:45:31;0.50;;;0.50;;
21886;SDS011;11108;49.988;8.182;2023-12-20T06:47:57;0.70;;;0.60;;
21886;SDS011;11108;49.988;8.182;2023-12-20T06:50:22;1.07;;;0.70;;
21886;SDS011;11108;49.988;8.182;2023-12-20T06:52:47;0.70;;;0.70;;
21886;SDS011;11108;49.988;8.182;2023-12-20T06:55:13;1.03;;;0.50;;
21886;SDS011;11108;49.988;8.182;2023-12-20T06:57:38;0.60;;;0.60;;
21886;SDS011;11108;49.988;8.182;2023-12-20T07:00:04;0.60;;;0.60;;
21886;SDS011;11108;49.988;8.182;2023-12-20T07:02:29;0.50;;;0.50;;
21886;SDS011;11108;49.988;8.182;2023-12-20T07:04:55;0.60;;;0.60;;
21886;SDS011;11108;49.988;8.182;2023-12-20T07:07:20;2.10;;;0.60;;
21886;SDS011;11108;49.988;8.182;2023-12-20T07:09:48;0.80;;;0.73;;
21886;SDS011;11108;49.988;8.182;2023-12-20T07:12:13;0.70;;;0.53;;
21886;SDS011;11108;49.988;8.182;2023-12-20T07:14:38;0.60;;;0.60;;
21886;SDS011;11108;49.988;8.182;2023-12-20T07:17:04;0.60;;;0.60;;
21886;SDS011;11108;49.988;8.182;2023-12-20T07:19:29;0.93;;;0.70;;
21886;SDS011;11108;49.988;8.182;2023-12-20T07:21:54;1.27;;;0.63;;
21886;SDS011;11108;49.988;8.182;2023-12-20T07:24:20;0.97;;;0.57;;
21886;SDS011;11108;49.988;8.182;2023-12-20T07:26:45;1.23;;;0.60;;
21886;SDS011;11108;49.988;8.182;2023-12-20T07:29:10;0.73;;;0.60;;
21886;SDS011;11108;49.988;8.182;2023-12-20T07:31:35;0.60;;;0.60;;
21886;SDS011;11108;49.988;8.182;2023-12-20T07:34:01;0.70;;;0.70;;
21886;SDS011;11108;49.988;8.182;2023-12-20T07:36:26;0.80;;;0.77;;
21886;SDS011;11108;49.988;8.182;2023-12-20T07:38:51;0.50;;;0.50;;
21886;SDS011;11108;49.988;8.182;2023-12-20T07:41:16;0.70;;;0.70;;
21886;SDS011;11108;49.988;8.182;2023-12-20T07:43:42;0.87;;;0.77;;
21886;SDS011;11108;49.988;8.182;2023-12-20T07:46:07;0.60;;;0.60;;
21886;SDS011;11108;49.988;8.182;2023-12-20T07:48:36;1.20;;;0.87;;
21886;SDS011;11108;49.988;8.182;2023-12-20T07:51:01;0.87;;;0.70;;
21886;SDS011;11108;49.988;8.182;2023-12-20T07:53:27;0.63;;;0.63;;
21886;SDS011;11108;49.988;8.182;2023-12-20T07:55:52;0.67;;;0.67;;
21886;SDS011;11108;49.988;8.182;2023-12-20T07:58:17;0.97;;;0.60;;
21886;SDS011;11108;49.988;8.182;2023-12-20T08:00:43;1.33;;;0.73;;
21886;SDS011;11108;49.988;8.182;2023-12-20T08:03:09;1.00;;;0.90;;
21886;SDS011;11108;49.988;8.182;2023-12-20T08:05:34;1.07;;;0.80;;
21886;SDS011;11108;49.988;8.182;2023-12-20T08:07:59;2.60;;;0.90;;
21886;SDS011;11108;49.988;8.182;2023-12-20T08:10:24;1.73;;;0.80;;
21886;SDS011;11108;49.988;8.182;2023-12-20T08:12:50;1.43;;;0.80;;
21886;SDS011;11108;49.988;8.182;2023-12-20T08:15:15;1.20;;;0.73;;
21886;SDS011;11108;49.988;8.182;2023-12-20T08:17:41;1.80;;;0.80;;
21886;SDS011;11108;49.988;8.182;2023-12-20T08:20:06;1.80;;;0.80;;
21886;SDS011;11108;49.988;8.182;2023-12-20T08:22:31;5.10;;;0.80;;
21886;SDS011;11108;49.988;8.182;2023-12-20T08:24:57;0.70;;;0.70;;
21886;SDS011;11108;49.988;8.182;2023-12-20T08:27:22;1.03;;;0.80;;
21886;SDS011;11108;49.988;8.182;2023-12-20T08:29:47;0.80;;;0.70;;
21886;SDS011;11108;49.988;8.182;2023-12-20T08:32:14;0.80;;;0.80;;
21886;SDS011;11108;49.988;8.182;2023-12-20T08:34:39;1.20;;;0.87;;
21886;SDS011;11108;49.988;8.182;2023-12-20T08:37:05;1.13;;;0.90;;
21886;SDS011;11108;49.988;8.182;2023-12-20T08:39:30;1.53;;;0.80;;
21886;SDS011;11108;49.988;8.182;2023-12-20T08:41:55;0.70;;;0.70;;
21886;SDS011;11108;49.988;8.182;2023-12-20T08:44:20;0.67;;;0.67;;
21886;SDS011;11108;49.988;8.182;2023-12-20T08:46:47;1.77;;;0.90;;
21886;SDS011;11108;49.988;8.182;2023-12-20T08:49:13;0.77;;;0.70;;
21886;SDS011;11108;49.988;8.182;2023-12-20T08:51:38;1.70;;;0.80;;
21886;SDS011;11108;49.988;8.182;2023-12-20T08:54:06;0.70;;;0.70;;
21886;SDS011;11108;49.988;8.182;2023-12-20T08:56:33;1.13;;;0.73;;
21886;SDS011;11108;49.988;8.182;2023-12-20T08:58:58;1.17;;;0.80;;
21886;SDS011;11108;49.988;8.182;2023-12-20T09:01:23;1.40;;;0.70;;
21886;SDS011;11108;49.988;8.182;2023-12-20T09:03:49;0.67;;;0.60;;
21886;SDS011;11108;49.988;8.182;2023-12-20T09:06:14;1.03;;;0.73;;
21886;SDS011;11108;49.988;8.182;2023-12-20T09:08:39;1.90;;;0.83;;
21886;SDS011;11108;49.988;8.182;2023-12-20T09:11:05;0.87;;;0.80;;
21886;SDS011;11108;49.988;8.182;2023-12-20T09:13:30;1.23;;;0.70;;
21886;SDS011;11108;49.988;8.182;2023-12-20T09:15:56;1.03;;;0.70;;
21886;SDS011;11108;49.988;8.182;2023-12-20T09:18:22;1.10;;;0.87;;
21886;SDS011;11108;49.988;8.182;2023-12-20T09:20:47;0.60;;;0.60;;
21886;SDS011;11108;49.988;8.182;2023-12-20T09:23:12;1.27;;;0.73;;
21886;SDS011;11108;49.988;8.182;2023-12-20T09:25:37;0.70;;;0.70;;
21886;SDS011;11108;49.988;8.182;2023-12-20T09:28:03;1.63;;;0.80;;
21886;SDS011;11108;49.988;8.182;2023-12-20T09:30:28;0.70;;;0.70;;
21886;SDS011;11108;49.988;8.182;2023-12-20T09:32:54;1.77;;;1.00;;
21886;SDS011;11108;49.988;8.182;2023-12-20T09:35:19;1.30;;;0.90;;
21886;SDS011;11108;49.988;8.182;2023-12-20T09:37:45;1.50;;;0.80;;
21886;SDS011;11108;49.988;8.182;2023-12-20T09:40:12;0.80;;;0.80;;
21886;SDS011;11108;49.988;8.182;2023-12-20T09:42:39;0.93;;;0.93;;
21886;SDS011;11108;49.988;8.182;2023-12-20T09:45:10;1.33;;;0.87;;
21886;SDS011;11108;49.988;8.182;2023-12-20T09:47:39;1.10;;;0.80;;
21886;SDS011;11108;49.988;8.182;2023-12-20T09:50:05;1.33;;;0.60;;
21886;SDS011;11108;49.988;8.182;2023-12-20T09:52:31;0.63;;;0.60;;
21886;SDS011;11108;49.988;8.182;2023-12-20T09:54:57;0.90;;;0.80;;
21886;SDS011;11108;49.988;8.182;2023-12-20T09:57:22;3.83;;;0.90;;
21886;SDS011;11108;49.988;8.182;2023-12-20T09:59:47;0.90;;;0.90;;
21886;SDS011;11108;49.988;8.182;2023-12-20T10:02:13;0.50;;;0.50;;
21886;SDS011;11108;49.988;8.182;2023-12-20T10:04:41;0.70;;;0.70;;
21886;SDS011;11108;49.988;8.182;2023-12-20T10:07:11;1.70;;;0.80;;
21886;SDS011;11108;49.988;8.182;2023-12-20T10:09:36;1.27;;;0.80;;
21886;SDS011;11108;49.988;8.182;2023-12-20T10:12:02;4.00;;;0.60;;
21886;SDS011;11108;49.988;8.182;2023-12-20T10:14:27;0.80;;;0.77;;
21886;SDS011;11108;49.988;8.182;2023-12-20T10:16:52;1.03;;;0.87;;
21886;SDS011;11108;49.988;8.182;2023-12-20T10:19:19;2.40;;;0.80;;
21886;SDS011;11108;49.988;8.182;2023-12-20T10:21:44;0.63;;;0.60;;
21886;SDS011;11108;49.988;8.182;2023-12-20T10:24:10;0.67;;;0.67;;
21886;SDS011;11108;49.988;8.182;2023-12-20T10:26:41;1.93;;;1.00;;
21886;SDS011;11108;49.988;8.182;2023-12-20T10:29:06;1.23;;;0.93;;
21886;SDS011;11108;49.988;8.182;2023-12-20T10:31:32;3.57;;;1.07;;
21886;SDS011;11108;49.988;8.182;2023-12-20T10:33:58;3.37;;;0.73;;
21886;SDS011;11108;49.988;8.182;2023-12-20T10:36:25;3.23;;;0.77;;
21886;SDS011;11108;49.988;8.182;2023-12-20T10:38:51;2.73;;;1.10;;
21886;SDS011;11108;49.988;8.182;2023-12-20T10:41:17;1.93;;;1.10;;
21886;SDS011;11108;49.988;8.182;2023-12-20T10:43:43;1.30;;;0.60;;
21886;SDS011;11108;49.988;8.182;2023-12-20T10:46:10;1.57;;;1.00;;
21886;SDS011;11108;49.988;8.182;2023-12-20T10:48:35;2.00;;;1.20;;
21886;SDS011;11108;49.988;8.182;2023-12-20T10:51:00;1.53;;;1.10;;
21886;SDS011;11108;49.988;8.182;2023-12-20T10:53:26;1.57;;;1.20;;
21886;SDS011;11108;49.988;8.182;2023-12-20T10:55:52;1.00;;;0.90;;
21886;SDS011;11108;49.988;8.182;2023-12-20T10:58:20;4.10;;;1.20;;
21886;SDS011;11108;49.988;8.182;2023-12-20T11:00:45;1.07;;;0.70;;
21886;SDS011;11108;49.988;8.182;2023-12-20T11:03:11;1.63;;;1.00;;
21886;SDS011;11108;49.988;8.182;2023-12-20T11:05:48;1.23;;;0.80;;
21886;SDS011;11108;49.988;8.182;2023-12-20T11:08:26;2.03;;;0.80;;
21886;SDS011;11108;49.988;8.182;2023-12-20T11:10:59;1.63;;;1.10;;
21886;SDS011;11108;49.988;8.182;2023-12-20T11:14:12;4.83;;;1.00;;
21886;SDS011;11108;49.988;8.182;2023-12-20T11:16:11;0.80;;;0.80;;
21886;SDS011;11108;49.988;8.182;2023-12-20T11:18:37;1.43;;;0.87;;
21886;SDS011;11108;49.988;8.182;2023-12-20T11:21:02;1.93;;;0.80;;
21886;SDS011;11108;49.988;8.182;2023-12-20T11:23:29;2.43;;;0.80;;
21886;SDS011;11108;49.988;8.182;2023-12-20T11:25:56;0.80;;;0.80;;
21886;SDS011;11108;49.988;8.182;2023-12-20T11:28:24;2.33;;;1.13;;
21886;SDS011;11108;49.988;8.182;2023-12-20T11:30:50;2.07;;;0.97;;
21886;SDS011;11108;49.988;8.182;2023-12-20T11:33:16;1.00;;;0.97;;
21886;SDS011;11108;49.988;8.182;2023-12-20T11:35:42;1.60;;;1.10;;
21886;SDS011;11108;49.988;8.182;2023-12-20T11:41:10;2.30;;;1.07;;
21886;SDS011;11108;49.988;8.182;2023-12-20T11:43:36;3.23;;;1.10;;
21886;SDS011;11108;49.988;8.182;2023-12-20T11:46:05;1.73;;;0.90;;
21886;SDS011;11108;49.988;8.182;2023-12-20T11:48:34;1.80;;;0.80;;
21886;SDS011;11108;49.988;8.182;2023-12-20T11:51:00;1.20;;;0.90;;
21886;SDS011;11108;49.988;8.182;2023-12-20T11:53:25;1.73;;;0.90;;
21886;SDS011;11108;49.988;8.182;2023-12-20T11:55:50;1.57;;;1.23;;
21886;SDS011;11108;49.988;8.182;2023-12-20T11:58:16;2.00;;;1.10;;
21886;SDS011;11108;49.988;8.182;2023-12-20T12:00:42;3.97;;;1.40;;
21886;SDS011;11108;49.988;8.182;2023-12-20T12:03:08;0.80;;;0.80;;
21886;SDS011;11108;49.988;8.182;2023-12-20T12:05:33;1.80;;;1.10;;
21886;SDS011;11108;49.988;8.182;2023-12-20T12:07:58;1.27;;;0.80;;
21886;SDS011;11108;49.988;8.182;2023-12-20T12:10:23;1.03;;;0.70;;
21886;SDS011;11108;49.988;8.182;2023-12-20T12:12:49;2.83;;;1.10;;
21886;SDS011;11108;49.988;8.182;2023-12-20T12:15:14;2.50;;;1.07;;
21886;SDS011;11108;49.988;8.182;2023-12-20T12:17:39;2.37;;;0.90;;
21886;SDS011;11108;49.988;8.182;2023-12-20T12:20:05;2.57;;;1.20;;
21886;SDS011;11108;49.988;8.182;2023-12-20T12:22:30;2.30;;;1.10;;
21886;SDS011;11108;49.988;8.182;2023-12-20T12:24:58;1.23;;;0.67;;
21886;SDS011;11108;49.988;8.182;2023-12-20T12:27:23;3.03;;;1.07;;
21886;SDS011;11108;49.988;8.182;2023-12-20T12:30:04;1.33;;;0.90;;
21886;SDS011;11108;49.988;8.182;2023-12-20T12:32:32;2.50;;;1.10;;
21886;SDS011;11108;49.988;8.182;2023-12-20T12:34:57;0.70;;;0.70;;
21886;SDS011;11108;49.988;8.182;2023-12-20T12:37:22;1.50;;;0.70;;
21886;SDS011;11108;49.988;8.182;2023-12-20T12:39:49;3.67;;;1.00;;
21886;SDS011;11108;49.988;8.182;2023-12-20T12:42:14;1.93;;;1.10;;
21886;SDS011;11108;49.988;8.182;2023-12-20T12:44:39;0.93;;;0.77;;
21886;SDS011;11108;49.988;8.182;2023-12-20T12:47:05;1.20;;;1.10;;
21886;SDS011;11108;49.988;8.182;2023-12-20T12:49:30;1.50;;;1.00;;
21886;SDS011;11108;49.988;8.182;2023-12-20T12:51:56;3.80;;;0.90;;
21886;SDS011;11108;49.988;8.182;2023-12-20T12:54:23;2.70;;;0.80;;
21886;SDS011;11108;49.988;8.182;2023-12-20T12:56:48;2.10;;;1.10;;
21886;SDS011;11108;49.988;8.182;2023-12-20T12:59:14;1.37;;;0.80;;
21886;SDS011;11108;49.988;8.182;2023-12-20T13:01:40;2.97;;;0.90;;
21886;SDS011;11108;49.988;8.182;2023-12-20T13:04:05;1.37;;;0.80;;
21886;SDS011;11108;49.988;8.182;2023-12-20T13:06:35;3.90;;;1.27;;
21886;SDS011;11108;49.988;8.182;2023-12-20T13:09:00;1.00;;;0.90;;
21886;SDS011;11108;49.988;8.182;2023-12-20T13:11:25;2.43;;;1.10;;
21886;SDS011;11108;49.988;8.182;2023-12-20T13:13:50;0.90;;;0.90;;
21886;SDS011;11108;49.988;8.182;2023-12-20T13:16:16;1.53;;;0.90;;
21886;SDS011;11108;49.988;8.182;2023-12-20T13:18:41;2.30;;;1.10;;
21886;SDS011;11108;49.988;8.182;2023-12-20T13:21:07;1.77;;;0.83;;
21886;SDS011;11108;49.988;8.182;2023-12-20T13:23:33;1.30;;;1.10;;
21886;SDS011;11108;49.988;8.182;2023-12-20T13:25:58;2.90;;;1.17;;
21886;SDS011;11108;49.988;8.182;2023-12-20T13:28:23;1.00;;;0.87;;
21886;SDS011;11108;49.988;8.182;2023-12-20T13:30:48;1.90;;;1.10;;
21886;SDS011;11108;49.988;8.182;2023-12-20T13:33:13;2.63;;;1.00;;
21886;SDS011;11108;49.988;8.182;2023-12-20T13:35:39;3.63;;;1.00;;
21886;SDS011;11108;49.988;8.182;2023-12-20T13:38:04;1.17;;;0.77;;
21886;SDS011;11108;49.988;8.182;2023-12-20T13:40:29;2.97;;;0.90;;
21886;SDS011;11108;49.988;8.182;2023-12-20T13:42:55;1.60;;;1.20;;
21886;SDS011;11108;49.988;8.182;2023-12-20T13:45:20;0.70;;;0.70;;
21886;SDS011;11108;49.988;8.182;2023-12-20T13:47:45;5.83;;;1.10;;
21886;SDS011;11108;49.988;8.182;2023-12-20T13:50:10;2.30;;;0.80;;
21886;SDS011;11108;49.988;8.182;2023-12-20T13:52:35;1.63;;;1.00;;
21886;SDS011;11108;49.988;8.182;2023-12-20T13:55:01;4.53;;;1.27;;
21886;SDS011;11108;49.988;8.182;2023-12-20T13:57:26;1.70;;;1.07;;
21886;SDS011;11108;49.988;8.182;2023-12-20T13:59:51;1.70;;;1.00;;
21886;SDS011;11108;49.988;8.182;2023-12-20T14:02:16;2.27;;;1.17;;
21886;SDS011;11108;49.988;8.182;2023-12-20T14:04:42;2.37;;;1.10;;
21886;SDS011;11108;49.988;8.182;2023-12-20T14:07:07;1.80;;;0.87;;
21886;SDS011;11108;49.988;8.182;2023-12-20T14:09:32;2.77;;;1.13;;
21886;SDS011;11108;49.988;8.182;2023-12-20T14:11:58;1.30;;;1.00;;
21886;SDS011;11108;49.988;8.182;2023-12-20T14:14:23;1.67;;;1.10;;
21886;SDS011;11108;49.988;8.182;2023-12-20T14:16:48;1.87;;;1.17;;
21886;SDS011;11108;49.988;8.182;2023-12-20T14:19:13;0.70;;;0.70;;
21886;SDS011;11108;49.988;8.182;2023-12-20T14:21:38;1.30;;;0.87;;
21886;SDS011;11108;49.988;8.182;2023-12-20T14:24:04;1.17;;;0.80;;
21886;SDS011;11108;49.988;8.182;2023-12-20T14:26:29;1.37;;;0.97;;
21886;SDS011;11108;49.988;8.182;2023-12-20T14:28:54;1.37;;;0.93;;
21886;SDS011;11108;49.988;8.182;2023-12-20T14:31:20;1.90;;;1.00;;
21886;SDS011;11108;49.988;8.182;2023-12-20T14:33:45;1.97;;;0.80;;
21886;SDS011;11108;49.988;8.182;2023-12-20T14:36:11;1.60;;;1.10;;
21886;SDS011;11108;49.988;8.182;2023-12-20T14:38:36;1.83;;;0.83;;
21886;SDS011;11108;49.988;8.182;2023-12-20T14:41:01;1.00;;;1.00;;